createdAt,value
2018-12-15T00:00:53.922Z,-0.40
2018-12-15T00:03:21.330Z,-0.38
2018-12-15T00:05:48.916Z,-0.36
2018-12-15T00:08:17.248Z,-0.34
2018-12-15T00:10:44.664Z,-0.32
2018-12-15T00:13:12.189Z,-0.29
2018-12-15T00:15:39.863Z,-0.30
2018-12-15T00:18:07.559Z,-0.33
2018-12-15T00:20:35.400Z,-0.38
2018-12-15T00:23:02.816Z,-0.44
2018-12-15T00:25:30.308Z,-0.48
2018-12-15T00:27:57.865Z,-0.52
2018-12-15T00:30:25.328Z,-0.56
2018-12-15T00:32:52.779Z,-0.56
2018-12-15T00:35:20.227Z,-0.56
2018-12-15T00:37:47.699Z,-0.58
2018-12-15T00:40:15.114Z,-0.61
2018-12-15T00:42:42.786Z,-0.64
2018-12-15T00:45:10.208Z,-0.66
2018-12-15T00:47:37.712Z,-0.68
2018-12-15T00:50:05.301Z,-0.66
2018-12-15T00:52:33.092Z,-0.69
2018-12-15T00:55:00.496Z,-0.72
2018-12-15T00:57:27.967Z,-0.70
2018-12-15T00:59:55.366Z,-0.69
2018-12-15T01:02:23.576Z,-0.70
2018-12-15T01:04:51.091Z,-0.67
2018-12-15T01:07:18.500Z,-0.64
2018-12-15T01:09:45.963Z,-0.61
2018-12-15T01:12:13.631Z,-0.60
2018-12-15T01:14:41.044Z,-0.57
2018-12-15T01:17:09.156Z,-0.58
2018-12-15T01:19:36.773Z,-0.62
2018-12-15T01:22:04.188Z,-0.67
2018-12-15T01:24:31.596Z,-0.69
2018-12-15T01:26:59.100Z,-0.70
2018-12-15T01:29:26.513Z,-0.72
2018-12-15T01:31:53.910Z,-0.74
2018-12-15T01:34:21.482Z,-0.73
2018-12-15T01:36:48.874Z,-0.75
2018-12-15T01:39:16.370Z,-0.81
2018-12-15T01:41:44.213Z,-0.82
2018-12-15T01:44:11.692Z,-0.81
2018-12-15T01:46:39.108Z,-0.83
2018-12-15T01:49:06.721Z,-0.86
2018-12-15T01:51:34.140Z,-0.87
2018-12-15T01:54:01.797Z,-0.88
2018-12-15T01:56:29.491Z,-0.91
2018-12-15T01:58:57.180Z,-0.94
2018-12-15T02:01:24.888Z,-0.93
2018-12-15T02:03:52.320Z,-0.95
2018-12-15T02:06:19.744Z,-0.94
2018-12-15T02:08:47.154Z,-0.91
2018-12-15T02:11:14.584Z,-0.88
2018-12-15T02:13:41.997Z,-0.85
2018-12-15T02:16:10.380Z,-0.86
2018-12-15T02:18:38.087Z,-0.87
2018-12-15T02:21:05.568Z,-0.90
2018-12-15T02:23:32.964Z,-0.90
2018-12-15T02:26:00.416Z,-0.89
2018-12-15T02:28:28.604Z,-0.88
2018-12-15T02:30:56.125Z,-0.90
2018-12-15T02:33:23.880Z,-0.91
2018-12-15T02:35:51.459Z,-0.94
2018-12-15T02:38:18.868Z,-0.97
2018-12-15T02:40:46.583Z,-0.98
2018-12-15T02:43:14.290Z,-0.98
2018-12-15T02:45:41.700Z,-0.95
2018-12-15T02:48:09.169Z,-0.95
2018-12-15T02:50:36.619Z,-0.95
2018-12-15T02:53:04.820Z,-0.95
2018-12-15T02:55:33.374Z,-0.93
2018-12-15T02:58:00.880Z,-0.92
2018-12-15T03:00:28.350Z,-0.89
2018-12-15T03:02:55.941Z,-0.90
2018-12-15T03:05:23.344Z,-0.95
2018-12-15T03:07:50.757Z,-0.98
2018-12-15T03:10:18.316Z,-0.98
2018-12-15T03:12:45.922Z,-0.97
2018-12-15T03:15:13.323Z,-0.98
2018-12-15T03:17:40.857Z,-1.00
2018-12-15T03:20:08.871Z,-0.99
2018-12-15T03:22:36.299Z,-0.97
2018-12-15T03:25:03.971Z,-0.98
2018-12-15T03:27:31.383Z,-0.97
2018-12-15T03:29:58.889Z,-0.95
2018-12-15T03:32:26.670Z,-0.93
2018-12-15T03:34:54.896Z,-0.90
2018-12-15T03:37:22.299Z,-0.92
2018-12-15T03:39:50.051Z,-0.89
2018-12-15T03:42:17.463Z,-0.91
2018-12-15T03:44:44.872Z,-0.93
2018-12-15T03:47:12.308Z,-0.93
2018-12-15T03:49:39.714Z,-0.95
2018-12-15T03:52:07.128Z,-0.96
2018-12-15T03:54:34.568Z,-1.02
2018-12-15T03:57:02.765Z,-1.05
2018-12-15T03:59:30.420Z,-1.06
2018-12-15T04:01:58.017Z,-1.04
2018-12-15T04:04:25.677Z,-1.07
2018-12-15T04:06:53.179Z,-1.09
2018-12-15T04:09:20.760Z,-1.10
2018-12-15T04:11:48.172Z,-1.10
2018-12-15T04:14:16.067Z,-1.08
2018-12-15T04:16:43.643Z,-1.06
2018-12-15T04:19:11.445Z,-1.03
2018-12-15T04:21:38.983Z,-1.03
2018-12-15T04:24:06.654Z,-1.04
2018-12-15T04:26:34.254Z,-1.04
2018-12-15T04:29:01.880Z,-1.04
2018-12-15T04:31:29.445Z,-1.04
2018-12-15T04:33:56.855Z,-1.05
2018-12-15T04:36:24.265Z,-1.08
2018-12-15T04:38:51.883Z,-1.09
2018-12-15T04:41:19.287Z,-1.10
2018-12-15T04:43:47.051Z,-1.12
2018-12-15T04:46:14.577Z,-1.14
2018-12-15T04:48:41.985Z,-1.17
2018-12-15T04:51:10.343Z,-1.20
2018-12-15T04:53:38.026Z,-1.22
2018-12-15T04:56:05.594Z,-1.23
2018-12-15T04:58:32.985Z,-1.24
2018-12-15T05:01:00.759Z,-1.22
2018-12-15T05:03:28.195Z,-1.17
2018-12-15T05:05:55.603Z,-1.14
2018-12-15T05:08:23.213Z,-1.15
2018-12-15T05:10:50.717Z,-1.17
2018-12-15T05:13:18.321Z,-1.17
2018-12-15T05:15:45.789Z,-1.20
2018-12-15T05:18:18.206Z,-1.20
2018-12-15T05:20:43.021Z,-1.20
2018-12-15T05:23:10.725Z,-1.20
2018-12-15T05:25:38.429Z,-1.23
2018-12-15T05:28:05.831Z,-1.24
2018-12-15T05:30:33.384Z,-1.21
2018-12-15T05:33:00.793Z,-1.21
2018-12-15T05:35:28.993Z,-1.22
2018-12-15T05:37:56.481Z,-1.23
2018-12-15T05:40:24.291Z,-1.21
2018-12-15T05:42:51.799Z,-1.19
2018-12-15T05:45:19.292Z,-1.17
2018-12-15T05:47:46.703Z,-1.17
2018-12-15T05:50:14.861Z,-1.17
2018-12-15T05:52:42.393Z,-1.16
2018-12-15T05:55:09.803Z,-1.14
2018-12-15T05:57:37.212Z,-1.13
2018-12-15T06:00:07.888Z,-1.10
2018-12-15T06:02:35.555Z,-1.07
2018-12-15T06:05:03.260Z,-1.06
2018-12-15T06:07:32.012Z,-1.06
2018-12-15T06:09:59.627Z,-1.06
2018-12-15T06:12:27.047Z,-1.02
2018-12-15T06:14:55.708Z,-1.01
2018-12-15T06:17:23.703Z,-0.98
2018-12-15T06:19:51.123Z,-0.96
2018-12-15T06:22:18.583Z,-0.95
2018-12-15T06:24:46.684Z,-0.98
2018-12-15T06:27:14.275Z,-1.00
2018-12-15T06:29:41.780Z,-1.06
2018-12-15T06:32:09.180Z,-1.09
2018-12-15T06:34:36.696Z,-1.10
2018-12-15T06:37:04.248Z,-1.12
2018-12-15T06:39:32.549Z,-1.10
2018-12-15T06:41:59.955Z,-1.04
2018-12-15T06:44:27.464Z,-1.02
2018-12-15T06:46:54.868Z,-0.98
2018-12-15T06:49:22.933Z,-0.98
2018-12-15T06:51:50.367Z,-0.97
2018-12-15T06:54:17.771Z,-0.98
2018-12-15T06:56:45.175Z,-0.98
2018-12-15T06:59:12.615Z,-0.97
2018-12-15T07:01:40.031Z,-0.96
2018-12-15T07:04:07.555Z,-0.96
2018-12-15T07:06:35.240Z,-0.97
2018-12-15T07:09:03.387Z,-1.00
2018-12-15T07:11:30.802Z,-1.00
2018-12-15T07:13:58.555Z,-1.02
2018-12-15T07:16:25.967Z,-1.02
2018-12-15T07:18:53.373Z,-1.00
2018-12-15T07:21:20.920Z,-1.03
2018-12-15T07:23:48.345Z,-1.05
2018-12-15T07:26:15.949Z,-1.05
2018-12-15T07:28:43.495Z,-1.07
2018-12-15T07:31:10.908Z,-1.09
2018-12-15T07:33:38.499Z,-1.10
2018-12-15T07:36:06.085Z,-1.14
2018-12-15T07:38:33.500Z,-1.16
2018-12-15T07:41:01.296Z,-1.20
2018-12-15T07:43:28.859Z,-1.20
2018-12-15T07:45:56.322Z,-1.21
2018-12-15T07:48:23.737Z,-1.21
2018-12-15T07:50:51.223Z,-1.23
2018-12-15T07:53:19.236Z,-1.26
2018-12-15T07:55:46.650Z,-1.26
2018-12-15T07:58:14.228Z,-1.26
2018-12-15T08:00:41.633Z,-1.24
2018-12-15T08:03:09.130Z,-1.24
2018-12-15T08:05:36.663Z,-1.24
2018-12-15T08:08:04.055Z,-1.25
2018-12-15T08:10:33.425Z,-1.23
2018-12-15T08:13:02.846Z,-1.24
2018-12-15T08:15:30.307Z,-1.26
2018-12-15T08:17:57.723Z,-1.31
2018-12-15T08:20:25.383Z,-1.32
2018-12-15T08:22:52.883Z,-1.33
2018-12-15T08:25:20.588Z,-1.34
2018-12-15T08:27:48.146Z,-1.29
2018-12-15T08:30:15.680Z,-1.28
2018-12-15T08:32:43.263Z,-1.24
2018-12-15T08:35:10.951Z,-1.22
2018-12-15T08:37:38.390Z,-1.25
2018-12-15T08:40:05.920Z,-1.32
2018-12-15T08:42:33.463Z,-1.34
2018-12-15T08:45:01.291Z,-1.37
2018-12-15T08:47:28.756Z,-1.35
2018-12-15T08:49:56.191Z,-1.35
2018-12-15T08:52:23.603Z,-1.34
2018-12-15T08:54:51.017Z,-1.30
2018-12-15T08:57:24.444Z,-1.26
2018-12-15T08:59:52.887Z,-1.19
2018-12-15T09:02:20.299Z,-1.15
2018-12-15T09:04:47.843Z,-1.14
2018-12-15T09:07:16.566Z,-1.13
2018-12-15T09:09:44.211Z,-1.13
2018-12-15T09:12:11.680Z,-1.13
2018-12-15T09:14:39.091Z,-1.18
2018-12-15T09:17:06.492Z,-1.20
2018-12-15T09:19:34.215Z,-1.19
2018-12-15T09:22:01.736Z,-1.17
2018-12-15T09:24:29.151Z,-1.17
2018-12-15T09:26:56.899Z,-1.16
2018-12-15T09:29:24.313Z,-1.17
2018-12-15T09:31:51.815Z,-1.21
2018-12-15T09:34:19.464Z,-1.20
2018-12-15T09:36:47.093Z,-1.19
2018-12-15T09:39:14.732Z,-1.19
2018-12-15T09:41:42.253Z,-1.19
2018-12-15T09:44:09.667Z,-1.15
2018-12-15T09:46:37.404Z,-1.11
2018-12-15T09:49:05.190Z,-1.11
2018-12-15T09:51:32.593Z,-1.08
2018-12-15T09:54:00.011Z,-1.09
2018-12-15T09:56:27.723Z,-1.10
2018-12-15T09:58:55.216Z,-1.09
2018-12-15T10:01:22.967Z,-1.08
2018-12-15T10:03:50.435Z,-1.08
2018-12-15T10:06:17.853Z,-1.09
2018-12-15T10:08:45.299Z,-1.11
2018-12-15T10:11:12.956Z,-1.09
2018-12-15T10:13:40.358Z,-1.10
2018-12-15T10:16:07.766Z,-1.14
2018-12-15T10:18:35.432Z,-1.16
2018-12-15T10:21:02.845Z,-1.16
2018-12-15T10:23:30.305Z,-1.18
2018-12-15T10:25:57.758Z,-1.17
2018-12-15T10:28:25.268Z,-1.16
2018-12-15T10:30:58.429Z,-1.14
2018-12-15T10:33:26.645Z,-1.14
2018-12-15T10:35:54.451Z,-1.08
2018-12-15T10:38:21.949Z,-1.03
2018-12-15T10:40:49.662Z,-0.98
2018-12-15T10:43:17.075Z,-0.94
2018-12-15T10:45:44.900Z,-0.91
2018-12-15T10:48:12.325Z,-0.90
2018-12-15T10:50:39.717Z,-0.88
2018-12-15T10:53:07.309Z,-0.86
2018-12-15T10:55:34.715Z,-0.81
2018-12-15T10:58:03.043Z,-0.79
2018-12-15T11:00:36.246Z,-0.78
2018-12-15T11:03:04.422Z,-0.80
2018-12-15T11:05:32.035Z,-0.80
2018-12-15T11:07:59.459Z,-0.82
2018-12-15T11:10:26.873Z,-0.83
2018-12-15T11:12:54.279Z,-0.81
2018-12-15T11:15:21.994Z,-0.82
2018-12-15T11:17:49.452Z,-0.82
2018-12-15T11:20:17.668Z,-0.82
2018-12-15T11:22:45.385Z,-0.78
2018-12-15T11:25:12.907Z,-0.76
2018-12-15T11:27:40.323Z,-0.76
2018-12-15T11:30:08.175Z,-0.77
2018-12-15T11:32:35.579Z,-0.76
2018-12-15T11:35:04.522Z,-0.79
2018-12-15T11:37:32.227Z,-0.76
2018-12-15T11:39:59.863Z,-0.71
2018-12-15T11:42:27.336Z,-0.67
2018-12-15T11:44:55.294Z,-0.65
2018-12-15T11:47:22.686Z,-0.63
2018-12-15T11:49:50.103Z,-0.59
2018-12-15T11:52:18.336Z,-0.60
2018-12-15T11:54:45.748Z,-0.60
2018-12-15T11:57:13.168Z,-0.60
2018-12-15T11:59:40.614Z,-0.60
2018-12-15T12:02:08.020Z,-0.58
2018-12-15T12:04:35.508Z,-0.53
2018-12-15T12:07:03.244Z,-0.49
2018-12-15T12:09:30.661Z,-0.49
2018-12-15T12:11:58.073Z,-0.48
2018-12-15T12:14:25.675Z,-0.46
2018-12-15T12:16:53.110Z,-0.49
2018-12-15T12:19:20.503Z,-0.49
2018-12-15T12:21:48.240Z,-0.51
2018-12-15T12:24:15.688Z,-0.49
2018-12-15T12:26:43.088Z,-0.48
2018-12-15T12:29:10.712Z,-0.46
2018-12-15T12:31:38.189Z,-0.44
2018-12-15T12:34:05.849Z,-0.43
2018-12-15T12:36:33.457Z,-0.42
2018-12-15T12:39:00.863Z,-0.41
2018-12-15T12:41:28.285Z,-0.37
2018-12-15T12:43:55.772Z,-0.34
2018-12-15T12:46:23.180Z,-0.31
2018-12-15T12:48:51.471Z,-0.29
2018-12-15T12:51:19.156Z,-0.25
2018-12-15T12:53:46.570Z,-0.24
2018-12-15T12:56:13.973Z,-0.22
2018-12-15T12:58:41.754Z,-0.20
2018-12-15T13:01:09.658Z,-0.12
2018-12-15T13:03:37.136Z,-0.08
2018-12-15T13:06:04.824Z,-0.05
2018-12-15T13:08:32.514Z,-0.02
2018-12-15T13:10:59.919Z,0.00
2018-12-15T13:13:27.498Z,0.03
2018-12-15T13:15:55.790Z,0.06
2018-12-15T13:18:23.393Z,0.07
2018-12-15T13:20:50.888Z,0.10
2018-12-15T13:23:18.305Z,0.16
2018-12-15T13:25:45.931Z,0.37
2018-12-15T13:28:13.353Z,0.64
2018-12-15T13:30:41.148Z,0.83
2018-12-15T13:33:20.460Z,1.02
2018-12-15T13:35:47.873Z,1.26
2018-12-15T13:38:15.348Z,1.44
2018-12-15T13:40:42.793Z,1.44
2018-12-15T13:43:10.384Z,1.34
2018-12-15T13:45:38.168Z,1.23
2018-12-15T13:48:05.652Z,1.12
2018-12-15T13:50:33.064Z,1.03
2018-12-15T13:53:01.268Z,0.94
2018-12-15T13:55:28.708Z,0.88
2018-12-15T13:57:56.160Z,0.80
2018-12-15T14:00:24.204Z,0.74
2018-12-15T14:02:52.656Z,0.73
2018-12-15T14:05:20.244Z,0.77
2018-12-15T14:07:47.641Z,0.81
2018-12-15T14:10:15.188Z,0.83
2018-12-15T14:12:42.606Z,0.81
2018-12-15T14:15:10.019Z,0.91
2018-12-15T14:17:37.673Z,1.10
2018-12-15T14:20:05.350Z,1.16
2018-12-15T14:22:32.760Z,1.08
2018-12-15T14:25:00.266Z,1.01
2018-12-15T14:27:27.964Z,0.96
2018-12-15T14:29:55.508Z,0.92
2018-12-15T14:32:22.968Z,0.93
2018-12-15T14:34:50.372Z,0.91
2018-12-15T14:37:17.791Z,0.86
2018-12-15T14:39:45.480Z,0.81
2018-12-15T14:42:12.956Z,0.76
2018-12-15T14:44:40.403Z,0.71
2018-12-15T14:47:08.124Z,0.67
2018-12-15T14:49:35.531Z,0.65
2018-12-15T14:52:03.016Z,0.64
2018-12-15T14:54:30.645Z,0.61
2018-12-15T14:56:58.044Z,0.57
2018-12-15T14:59:25.460Z,0.53
2018-12-15T15:01:53.009Z,0.50
2018-12-15T15:04:20.421Z,0.50
2018-12-15T15:06:48.613Z,0.49
2018-12-15T15:09:16.199Z,0.47
2018-12-15T15:11:43.613Z,0.45
2018-12-15T15:14:11.532Z,0.39
2018-12-15T15:16:39.147Z,0.33
2018-12-15T15:19:06.764Z,0.27
2018-12-15T15:21:34.179Z,0.24
2018-12-15T15:24:01.757Z,0.21
2018-12-15T15:26:29.394Z,0.15
2018-12-15T15:28:57.105Z,0.14
2018-12-15T15:31:25.220Z,0.11
2018-12-15T15:33:52.636Z,0.06
2018-12-15T15:36:20.052Z,0.03
2018-12-15T15:38:47.728Z,0.00
2018-12-15T15:41:15.260Z,-0.03
2018-12-15T15:43:42.846Z,-0.04
2018-12-15T15:46:10.411Z,-0.04
2018-12-15T15:48:37.835Z,-0.06
2018-12-15T15:51:05.240Z,-0.06
2018-12-15T15:53:32.986Z,-0.09
2018-12-15T15:56:00.395Z,-0.13
2018-12-15T15:58:27.814Z,-0.17
2018-12-15T16:00:55.354Z,-0.20
2018-12-15T16:03:22.764Z,-0.24
2018-12-15T16:05:50.388Z,-0.26
2018-12-15T16:08:18.034Z,-0.28
2018-12-15T16:10:45.722Z,-0.30
2018-12-15T16:13:13.128Z,-0.33
2018-12-15T16:15:41.423Z,-0.35
2018-12-15T16:18:08.844Z,-0.38
2018-12-15T16:20:42.936Z,-0.40
2018-12-15T16:23:05.944Z,-0.43
2018-12-15T16:25:33.639Z,-0.46
2018-12-15T16:28:01.068Z,-0.47
2018-12-15T16:30:28.812Z,-0.51
2018-12-15T16:32:56.357Z,-0.54
2018-12-15T16:35:24.141Z,-0.56
2018-12-15T16:37:51.991Z,-0.60
2018-12-15T16:40:19.404Z,-0.63
2018-12-15T16:42:46.823Z,-0.67
2018-12-15T16:45:14.285Z,-0.69
2018-12-15T16:47:41.791Z,-0.73
2018-12-15T16:50:10.428Z,-0.74
2018-12-15T16:52:38.163Z,-0.77
2018-12-15T16:55:06.419Z,-0.81
2018-12-15T16:57:33.837Z,-0.85
2018-12-15T17:00:01.586Z,-0.87
2018-12-15T17:02:28.994Z,-0.86
2018-12-15T17:04:56.449Z,-0.87
2018-12-15T17:07:23.914Z,-0.88
2018-12-15T17:09:51.418Z,-0.93
2018-12-15T17:12:18.816Z,-1.01
2018-12-15T17:14:46.619Z,-1.06
2018-12-15T17:17:14.033Z,-1.11
2018-12-15T17:19:41.437Z,-1.15
2018-12-15T17:22:09.004Z,-1.21
2018-12-15T17:24:36.419Z,-1.26
2018-12-15T17:27:04.515Z,-1.32
2018-12-15T17:29:31.984Z,-1.39
2018-12-15T17:31:59.673Z,-1.45
2018-12-15T17:34:27.144Z,-1.48
2018-12-15T17:36:54.594Z,-1.52
2018-12-15T17:39:22.260Z,-1.58
2018-12-15T17:41:49.676Z,-1.64
2018-12-15T17:44:17.245Z,-1.68
2018-12-15T17:46:44.661Z,-1.72
2018-12-15T17:49:12.064Z,-1.77
2018-12-15T17:51:39.512Z,-1.82
2018-12-15T17:54:07.010Z,-1.87
2018-12-15T17:56:34.528Z,-1.95
2018-12-15T17:59:01.991Z,-2.00
2018-12-15T18:01:29.676Z,-2.03
2018-12-15T18:03:57.079Z,-2.08
2018-12-15T18:06:24.871Z,-2.15
2018-12-15T18:08:52.274Z,-2.20
2018-12-15T18:11:20.388Z,-2.26
2018-12-15T18:13:47.832Z,-2.32
2018-12-15T18:16:15.440Z,-2.36
2018-12-15T18:18:42.942Z,-2.46
2018-12-15T18:21:10.732Z,-2.52
2018-12-15T18:23:38.141Z,-2.55
2018-12-15T18:26:05.633Z,-2.60
2018-12-15T18:28:34.032Z,-2.62
2018-12-15T18:31:02.027Z,-2.64
2018-12-15T18:33:29.548Z,-2.67
2018-12-15T18:35:57.225Z,-2.70
2018-12-15T18:38:24.628Z,-2.72
2018-12-15T18:40:52.042Z,-2.74
2018-12-15T18:43:19.795Z,-2.76
2018-12-15T18:45:47.847Z,-2.80
2018-12-15T18:48:15.295Z,-2.85
2018-12-15T18:50:42.828Z,-2.86
2018-12-15T18:53:10.233Z,-2.86
2018-12-15T18:55:37.640Z,-2.90
2018-12-15T18:58:07.064Z,-2.94
2018-12-15T19:00:34.457Z,-2.98
2018-12-15T19:03:01.873Z,-2.98
2018-12-15T19:05:29.413Z,-3.02
2018-12-15T19:07:57.214Z,-3.04
2018-12-15T19:10:24.609Z,-3.11
2018-12-15T19:12:52.149Z,-3.06
2018-12-15T19:15:19.565Z,-3.06
2018-12-15T19:17:47.877Z,-3.07
2018-12-15T19:20:15.433Z,-3.10
2018-12-15T19:22:43.043Z,-3.11
2018-12-15T19:25:10.547Z,-3.11
2018-12-15T19:27:38.230Z,-3.15
2018-12-15T19:30:06.573Z,-3.19
2018-12-15T19:32:34.080Z,-3.21
2018-12-15T19:35:01.705Z,-3.19
2018-12-15T19:37:29.700Z,-3.18
2018-12-15T19:39:57.298Z,-3.17
2018-12-15T19:42:24.801Z,-3.19
2018-12-15T19:44:52.212Z,-3.21
2018-12-15T19:47:19.645Z,-3.25
2018-12-15T19:49:47.393Z,-3.31
2018-12-15T19:52:14.792Z,-3.33
2018-12-15T19:54:42.203Z,-3.33
2018-12-15T19:57:10.277Z,-3.34
2018-12-15T19:59:37.872Z,-3.35
2018-12-15T20:02:05.605Z,-3.37
2018-12-15T20:04:33.271Z,-3.39
2018-12-15T20:07:00.682Z,-3.42
2018-12-15T20:09:28.088Z,-3.42
2018-12-15T20:11:55.583Z,-3.45
2018-12-15T20:14:22.994Z,-3.48
2018-12-15T20:16:50.413Z,-3.49
2018-12-15T20:19:17.985Z,-3.57
2018-12-15T20:21:45.394Z,-3.60
2018-12-15T20:24:12.809Z,-3.62
2018-12-15T20:26:40.239Z,-3.66
2018-12-15T20:29:07.652Z,-3.71
2018-12-15T20:31:35.059Z,-3.73
2018-12-15T20:34:02.531Z,-3.78
2018-12-15T20:36:29.954Z,-3.79
2018-12-15T20:38:57.551Z,-3.81
2018-12-15T20:41:25.255Z,-3.84
2018-12-15T20:43:52.959Z,-3.87
2018-12-15T20:46:20.663Z,-3.88
2018-12-15T20:48:48.295Z,-3.90
2018-12-15T20:51:16.119Z,-3.92
2018-12-15T20:53:43.515Z,-3.94
2018-12-15T20:56:10.953Z,-3.98
2018-12-15T20:58:38.357Z,-4.03
2018-12-15T21:01:05.771Z,-4.04
2018-12-15T21:03:33.333Z,-4.06
2018-12-15T21:06:00.936Z,-4.08
2018-12-15T21:08:28.351Z,-4.09
2018-12-15T21:10:55.835Z,-4.06
2018-12-15T21:13:23.844Z,-4.03
2018-12-15T21:15:53.214Z,-4.04
2018-12-15T21:18:20.659Z,-4.03
2018-12-15T21:20:48.136Z,-4.03
2018-12-15T21:23:16.548Z,-4.01
2018-12-15T21:25:43.990Z,-3.97
2018-12-15T21:28:11.972Z,-3.92
2018-12-15T21:30:39.683Z,-3.86
2018-12-15T21:33:07.214Z,-3.84
2018-12-15T21:35:34.615Z,-3.86
2018-12-15T21:38:02.775Z,-3.87
2018-12-15T21:40:30.308Z,-3.93
2018-12-15T21:42:57.718Z,-3.96
2018-12-15T21:45:25.805Z,-4.00
2018-12-15T21:47:57.661Z,-4.04
2018-12-15T21:50:23.198Z,-4.07
2018-12-15T21:52:50.795Z,-4.02
2018-12-15T21:55:18.248Z,-4.04
2018-12-15T21:57:45.658Z,-4.06
2018-12-15T22:00:13.224Z,-4.09
2018-12-15T22:02:40.691Z,-4.13
2018-12-15T22:05:08.100Z,-4.15
2018-12-15T22:07:35.509Z,-4.16
2018-12-15T22:10:03.001Z,-4.16
2018-12-15T22:12:30.409Z,-4.14
2018-12-15T22:14:58.510Z,-4.16
2018-12-15T22:17:26.060Z,-4.18
2018-12-15T22:19:53.468Z,-4.20
2018-12-15T22:22:20.884Z,-4.22
2018-12-15T22:24:48.724Z,-4.22
2018-12-15T22:27:16.131Z,-4.21
2018-12-15T22:29:43.571Z,-4.23
2018-12-15T22:32:10.999Z,-4.24
2018-12-15T22:34:38.413Z,-4.29
2018-12-15T22:37:06.275Z,-4.31
2018-12-15T22:39:33.903Z,-4.31
2018-12-15T22:42:01.445Z,-4.31
2018-12-15T22:44:29.034Z,-4.36
2018-12-15T22:46:56.542Z,-4.41
2018-12-15T22:49:23.965Z,-4.47
2018-12-15T22:51:52.161Z,-4.52
2018-12-15T22:54:19.737Z,-4.57
2018-12-15T22:56:47.149Z,-4.61
2018-12-15T22:59:14.542Z,-4.65
2018-12-15T23:01:45.907Z,-4.69
2018-12-15T23:04:14.524Z,-4.71
2018-12-15T23:06:41.925Z,-4.73
2018-12-15T23:09:09.353Z,-4.76
2018-12-15T23:11:37.483Z,-4.79
2018-12-15T23:14:04.954Z,-4.81
2018-12-15T23:16:32.811Z,-4.85
2018-12-15T23:19:00.209Z,-4.80
2018-12-15T23:21:28.140Z,-4.86
2018-12-15T23:23:55.804Z,-4.84
2018-12-15T23:26:23.204Z,-4.86
2018-12-15T23:28:50.617Z,-4.89
2018-12-15T23:31:18.356Z,-4.95
2018-12-15T23:33:45.778Z,-4.88
2018-12-15T23:36:13.180Z,-4.86
2018-12-15T23:38:40.707Z,-4.83
2018-12-15T23:41:08.111Z,-4.80
2018-12-15T23:43:35.513Z,-4.78
2018-12-15T23:46:02.987Z,-4.76
2018-12-15T23:48:30.393Z,-4.77
2018-12-15T23:50:57.791Z,-4.79
2018-12-15T23:53:25.234Z,-4.76
2018-12-15T23:55:53.363Z,-4.73
2018-12-15T23:58:20.801Z,-4.69
